createdAt,value
2022-08-17T00:03:00.978Z,99.90
2022-08-17T00:06:07.045Z,99.90
2022-08-17T00:09:03.843Z,99.90
2022-08-17T00:12:40.909Z,99.90
2022-08-17T00:15:10.878Z,99.90
2022-08-17T00:18:03.629Z,99.90
2022-08-17T00:21:23.659Z,99.90
2022-08-17T00:24:18.716Z,99.90
2022-08-17T00:27:11.402Z,99.90
2022-08-17T00:30:06.769Z,99.90
2022-08-17T00:33:12.526Z,99.90
2022-08-17T00:36:08.639Z,99.90
2022-08-17T00:39:00.975Z,99.90
2022-08-17T00:41:53.166Z,99.90
2022-08-17T00:44:45.848Z,99.90
2022-08-17T00:47:38.166Z,99.90
2022-08-17T00:50:30.522Z,99.90
2022-08-17T00:53:23.016Z,99.90
2022-08-17T00:56:20.891Z,99.90
2022-08-17T00:59:17.683Z,99.90
2022-08-17T01:02:12.652Z,99.90
2022-08-17T01:05:06.780Z,99.90
2022-08-17T01:08:01.873Z,99.90
2022-08-17T01:10:58.124Z,99.90
2022-08-17T01:13:53.430Z,99.90
2022-08-17T01:16:45.614Z,99.90
2022-08-17T01:19:40.953Z,99.90
2022-08-17T01:22:33.300Z,99.90
2022-08-17T01:25:25.551Z,99.90
2022-08-17T01:28:52.221Z,99.90
2022-08-17T01:31:39.049Z,99.90
2022-08-17T01:34:39.864Z,99.90
2022-08-17T01:37:39.853Z,99.90
2022-08-17T01:40:49.550Z,99.90
2022-08-17T01:43:59.064Z,99.90
2022-08-17T01:46:51.439Z,99.90
2022-08-17T01:49:44.452Z,99.90
2022-08-17T01:52:36.926Z,99.90
2022-08-17T01:56:05.331Z,99.90
2022-08-17T01:58:57.544Z,99.90
2022-08-17T02:01:50.491Z,99.90
2022-08-17T02:04:42.795Z,99.90
2022-08-17T02:07:59.762Z,99.90
2022-08-17T02:10:50.079Z,99.90
2022-08-17T02:13:45.538Z,99.90
2022-08-17T02:16:41.138Z,99.90
2022-08-17T02:19:33.339Z,99.90
2022-08-17T02:22:26.189Z,99.90
2022-08-17T02:25:20.352Z,99.90
2022-08-17T02:28:12.656Z,99.90
2022-08-17T02:31:08.223Z,99.90
2022-08-17T02:34:03.810Z,99.90
2022-08-17T02:36:56.578Z,99.90
2022-08-17T02:39:48.843Z,99.90
2022-08-17T02:42:43.419Z,99.90
2022-08-17T02:45:36.139Z,99.90
2022-08-17T02:48:31.446Z,99.90
2022-08-17T02:51:24.453Z,99.90
2022-08-17T02:54:39.953Z,99.90
2022-08-17T02:57:30.180Z,99.90
2022-08-17T03:00:26.850Z,99.90
2022-08-17T03:03:19.118Z,99.90
2022-08-17T03:06:11.424Z,99.90
2022-08-17T03:09:04.440Z,99.90
2022-08-17T03:12:08.504Z,99.90
2022-08-17T03:15:13.286Z,99.90
2022-08-17T03:18:05.520Z,99.90
2022-08-17T03:21:01.742Z,99.90
2022-08-17T03:23:54.383Z,99.90
2022-08-17T03:26:47.186Z,99.90
2022-08-17T03:29:39.815Z,99.90
2022-08-17T03:32:41.758Z,99.90
2022-08-17T03:35:36.470Z,99.90
2022-08-17T03:38:28.708Z,99.90
2022-08-17T03:41:31.301Z,99.90
2022-08-17T03:44:23.493Z,99.90
2022-08-17T03:47:34.061Z,99.90
2022-08-17T03:50:45.113Z,99.90
2022-08-17T03:54:07.705Z,99.90
2022-08-17T03:57:04.609Z,99.90
2022-08-17T03:59:57.646Z,99.90
2022-08-17T04:02:49.994Z,99.90
2022-08-17T04:05:42.781Z,99.90
2022-08-17T04:08:35.603Z,99.90
2022-08-17T04:11:27.892Z,99.90
2022-08-17T04:14:20.403Z,99.90
2022-08-17T04:17:12.626Z,99.90
2022-08-17T04:20:05.407Z,99.90
2022-08-17T04:23:09.409Z,99.90
2022-08-17T04:26:01.652Z,99.90
2022-08-17T04:28:54.112Z,99.90
2022-08-17T04:31:46.509Z,99.90
2022-08-17T04:34:38.771Z,99.90
2022-08-17T04:37:30.995Z,99.90
2022-08-17T04:40:43.654Z,99.90
2022-08-17T04:43:37.944Z,99.90
2022-08-17T04:46:33.526Z,99.90
2022-08-17T04:49:25.745Z,99.90
2022-08-17T04:52:29.858Z,99.90
2022-08-17T04:55:30.341Z,99.90
2022-08-17T04:58:22.553Z,99.90
2022-08-17T05:01:16.196Z,99.90
2022-08-17T05:04:33.258Z,99.90
2022-08-17T05:07:31.394Z,99.90
2022-08-17T05:10:30.980Z,99.90
2022-08-17T05:13:26.615Z,99.90
2022-08-17T05:16:21.036Z,99.90
2022-08-17T05:19:13.226Z,99.90
2022-08-17T05:22:06.171Z,99.90
2022-08-17T05:24:58.336Z,99.90
2022-08-17T05:27:51.027Z,99.90
2022-08-17T05:30:44.656Z,99.90
2022-08-17T05:33:44.522Z,99.90
2022-08-17T05:36:43.927Z,99.90
2022-08-17T05:39:36.653Z,99.90
2022-08-17T05:42:28.889Z,99.90
2022-08-17T05:45:39.971Z,99.90
2022-08-17T05:48:46.510Z,99.90
2022-08-17T05:52:10.001Z,99.90
2022-08-17T05:55:07.078Z,99.90
2022-08-17T05:58:08.330Z,99.90
2022-08-17T06:01:11.924Z,99.90
2022-08-17T06:04:31.539Z,99.90
2022-08-17T06:07:43.974Z,99.90
2022-08-17T06:10:54.236Z,99.90
2022-08-17T06:14:09.816Z,99.20
2022-08-17T06:17:10.329Z,97.50
2022-08-17T06:20:04.937Z,97.80
2022-08-17T06:23:04.669Z,97.30
2022-08-17T06:26:03.857Z,96.00
2022-08-17T06:29:03.493Z,96.00
2022-08-17T06:32:04.371Z,95.80
2022-08-17T06:34:58.621Z,95.30
2022-08-17T06:37:59.321Z,95.10
2022-08-17T06:41:20.162Z,94.70
2022-08-17T06:44:50.302Z,95.40
2022-08-17T06:48:07.059Z,95.20
2022-08-17T06:51:19.196Z,94.60
2022-08-17T06:54:46.203Z,94.20
2022-08-17T06:57:45.269Z,94.30
2022-08-17T07:00:41.867Z,94.30
2022-08-17T07:03:37.773Z,94.80
2022-08-17T07:06:38.246Z,93.80
2022-08-17T07:09:39.619Z,93.70
2022-08-17T07:12:41.270Z,92.10
2022-08-17T07:15:42.513Z,92.10
2022-08-17T07:18:34.830Z,92.00
2022-08-17T07:21:38.635Z,91.90
2022-08-17T07:24:47.342Z,91.50
2022-08-17T07:28:06.900Z,90.50
2022-08-17T07:31:00.071Z,86.90
2022-08-17T07:34:04.039Z,90.00
2022-08-17T07:37:05.194Z,88.70
2022-08-17T07:40:15.487Z,90.00
2022-08-17T07:43:40.809Z,87.90
2022-08-17T07:46:53.651Z,85.90
2022-08-17T07:49:46.505Z,84.10
2022-08-17T07:52:50.986Z,84.00
2022-08-17T07:55:45.347Z,84.10
2022-08-17T07:58:37.538Z,82.10
2022-08-17T08:01:39.418Z,83.70
2022-08-17T08:08:03.169Z,79.80
2022-08-17T08:11:26.978Z,78.80
2022-08-17T08:14:29.612Z,81.20
2022-08-17T08:17:35.796Z,79.70
2022-08-17T08:20:53.494Z,80.80
2022-08-17T08:23:59.654Z,79.20
2022-08-17T08:27:56.069Z,77.10
2022-08-17T08:30:56.721Z,73.60
2022-08-17T08:34:06.593Z,76.40
2022-08-17T08:37:17.757Z,75.30
2022-08-17T08:40:17.141Z,72.70
2022-08-17T08:43:27.728Z,72.00
2022-08-17T08:46:25.309Z,71.90
2022-08-17T08:53:05.060Z,71.10
2022-08-17T08:56:11.646Z,71.60
2022-08-17T08:59:16.922Z,68.10
2022-08-17T09:02:18.219Z,70.50
2022-08-17T09:05:33.602Z,68.80
2022-08-17T09:08:28.505Z,67.70
2022-08-17T09:11:30.553Z,67.10
2022-08-17T09:14:32.523Z,67.20
2022-08-17T09:18:21.441Z,64.80
2022-08-17T09:21:48.610Z,63.20
2022-08-17T09:24:49.250Z,65.10
2022-08-17T09:27:47.770Z,63.40
2022-08-17T09:30:55.273Z,64.30
2022-08-17T09:33:48.944Z,66.10
2022-08-17T09:36:50.151Z,63.60
2022-08-17T09:39:51.550Z,64.80
2022-08-17T09:43:12.648Z,64.20
2022-08-17T09:46:09.741Z,63.40
2022-08-17T09:49:25.007Z,63.40
2022-08-17T09:52:27.950Z,64.10
2022-08-17T09:55:21.992Z,61.60
2022-08-17T09:58:34.891Z,61.20
2022-08-17T10:01:31.756Z,61.30
2022-08-17T10:04:35.106Z,61.40
2022-08-17T10:07:41.553Z,59.90
2022-08-17T10:11:12.460Z,59.40
2022-08-17T10:14:37.979Z,58.70
2022-08-17T10:18:03.898Z,58.50
2022-08-17T10:21:20.556Z,61.70
2022-08-17T10:24:36.498Z,59.90
2022-08-17T10:27:44.116Z,60.00
2022-08-17T10:30:45.868Z,59.80
2022-08-17T10:33:55.472Z,59.20
2022-08-17T10:37:07.931Z,57.50
2022-08-17T10:40:02.779Z,57.70
2022-08-17T10:43:10.268Z,58.40
2022-08-17T10:46:30.890Z,58.20
2022-08-17T10:49:33.150Z,59.00
2022-08-17T10:52:28.387Z,58.20
2022-08-17T10:55:20.804Z,58.10
2022-08-17T10:58:21.993Z,57.10
2022-08-17T11:01:14.391Z,56.00
2022-08-17T11:04:18.712Z,55.80
2022-08-17T11:07:54.482Z,56.90
2022-08-17T11:11:04.993Z,57.80
2022-08-17T11:14:11.016Z,56.80
2022-08-17T11:17:16.728Z,58.00
2022-08-17T11:20:23.908Z,56.90
2022-08-17T11:23:24.803Z,56.60
2022-08-17T11:26:38.472Z,57.30
2022-08-17T11:29:59.508Z,55.60
2022-08-17T11:32:54.973Z,55.70
2022-08-17T11:35:53.971Z,55.70
2022-08-17T11:39:13.329Z,58.10
2022-08-17T11:42:28.039Z,57.40
2022-08-17T11:45:52.907Z,55.70
2022-08-17T11:49:13.369Z,55.40
2022-08-17T11:52:08.460Z,55.50
2022-08-17T11:55:24.056Z,54.90
2022-08-17T11:58:30.887Z,56.00
2022-08-17T12:01:22.947Z,55.80
2022-08-17T12:04:29.330Z,57.10
2022-08-17T12:07:23.233Z,56.20
2022-08-17T12:10:20.359Z,55.30
2022-08-17T12:13:16.504Z,56.00
2022-08-17T12:16:15.345Z,56.00
2022-08-17T12:19:19.384Z,55.30
2022-08-17T12:22:26.530Z,54.60
2022-08-17T12:25:26.297Z,54.30
2022-08-17T12:28:31.707Z,53.70
2022-08-17T12:31:27.999Z,55.00
2022-08-17T12:34:29.399Z,55.10
2022-08-17T12:37:26.270Z,55.50
2022-08-17T12:40:27.048Z,56.20
2022-08-17T12:43:22.774Z,56.00
2022-08-17T12:46:17.531Z,56.80
2022-08-17T12:49:33.253Z,54.80
2022-08-17T12:52:28.767Z,56.40
2022-08-17T12:55:22.792Z,56.20
2022-08-17T12:58:25.268Z,56.90
2022-08-17T13:01:18.370Z,53.80
2022-08-17T13:04:14.218Z,55.00
2022-08-17T13:07:07.631Z,54.70
2022-08-17T13:09:59.931Z,55.10
2022-08-17T13:12:52.940Z,55.20
2022-08-17T13:15:54.156Z,56.10
2022-08-17T13:18:51.927Z,55.70
2022-08-17T13:21:49.826Z,54.00
2022-08-17T13:24:54.840Z,54.70
2022-08-17T13:27:50.783Z,54.60
2022-08-17T13:30:43.325Z,54.40
2022-08-17T13:33:44.643Z,55.20
2022-08-17T13:36:37.477Z,55.40
2022-08-17T13:39:41.820Z,54.90
2022-08-17T13:42:51.952Z,55.00
2022-08-17T13:45:50.889Z,53.80
2022-08-17T13:48:43.543Z,53.60
2022-08-17T13:51:46.916Z,54.50
2022-08-17T13:54:39.827Z,54.00
2022-08-17T13:57:32.257Z,53.60
2022-08-17T14:00:31.922Z,52.30
2022-08-17T14:03:24.780Z,52.80
2022-08-17T14:06:49.320Z,52.90
2022-08-17T14:09:37.207Z,52.90
2022-08-17T14:12:32.298Z,53.00
2022-08-17T14:15:53.618Z,52.90
2022-08-17T14:18:56.413Z,53.00
2022-08-17T14:21:50.374Z,52.90
2022-08-17T14:24:44.847Z,52.90
2022-08-17T14:27:41.702Z,53.30
2022-08-17T14:30:45.236Z,52.80
2022-08-17T14:33:37.955Z,52.90
2022-08-17T14:36:31.248Z,52.50
2022-08-17T14:39:23.458Z,53.10
2022-08-17T14:42:16.433Z,53.10
2022-08-17T14:45:31.908Z,53.20
2022-08-17T14:48:24.092Z,53.10
2022-08-17T14:51:16.673Z,53.10
2022-08-17T14:54:08.856Z,53.70
2022-08-17T14:57:22.275Z,52.60
2022-08-17T15:00:16.692Z,53.70
2022-08-17T15:03:09.122Z,54.00
2022-08-17T15:06:02.747Z,53.90
2022-08-17T15:08:55.795Z,53.80
2022-08-17T15:11:48.067Z,54.00
2022-08-17T15:14:40.230Z,54.00
2022-08-17T15:17:45.001Z,54.40
2022-08-17T15:20:38.575Z,53.70
2022-08-17T15:23:31.808Z,54.50
2022-08-17T15:26:26.360Z,53.70
2022-08-17T15:29:18.712Z,54.30
2022-08-17T15:32:11.073Z,54.10
2022-08-17T15:35:05.446Z,54.50
2022-08-17T15:38:10.671Z,53.90
2022-08-17T15:41:04.261Z,53.80
2022-08-17T15:43:56.989Z,53.50
2022-08-17T15:46:49.769Z,54.40
2022-08-17T15:49:42.654Z,53.90
2022-08-17T15:52:40.576Z,53.90
2022-08-17T15:55:33.502Z,54.00
2022-08-17T15:58:32.243Z,54.20
2022-08-17T16:02:11.960Z,54.20
2022-08-17T16:04:44.010Z,54.60
2022-08-17T16:07:37.252Z,54.40
2022-08-17T16:10:36.380Z,54.00
2022-08-17T16:13:28.768Z,54.40
2022-08-17T16:16:20.976Z,54.80
2022-08-17T16:19:13.267Z,54.50
2022-08-17T16:22:11.151Z,54.80
2022-08-17T16:25:07.314Z,54.80
2022-08-17T16:28:00.381Z,54.50
2022-08-17T16:30:52.580Z,54.60
2022-08-17T16:33:58.489Z,54.80
2022-08-17T16:36:57.586Z,55.50
2022-08-17T16:39:50.166Z,54.70
2022-08-17T16:42:43.403Z,55.30
2022-08-17T16:45:39.978Z,55.30
2022-08-17T16:48:32.154Z,55.50
2022-08-17T16:51:24.826Z,55.00
2022-08-17T16:54:17.800Z,54.80
2022-08-17T16:57:11.493Z,54.80
2022-08-17T17:00:07.295Z,54.90
2022-08-17T17:03:19.084Z,55.00
2022-08-17T17:06:24.425Z,55.10
2022-08-17T17:09:23.427Z,55.20
2022-08-17T17:12:19.307Z,55.50
2022-08-17T17:15:57.650Z,55.70
2022-08-17T17:19:10.255Z,55.90
2022-08-17T17:22:20.565Z,56.20
2022-08-17T17:25:31.054Z,56.60
2022-08-17T17:28:43.434Z,57.00
2022-08-17T17:32:02.136Z,57.10
2022-08-17T17:35:04.564Z,57.30
2022-08-17T17:37:58.075Z,57.60
2022-08-17T17:40:54.083Z,57.80
2022-08-17T17:44:07.912Z,57.90
2022-08-17T17:47:02.256Z,58.10
2022-08-17T17:49:54.510Z,59.20
2022-08-17T17:52:49.473Z,59.90
2022-08-17T17:56:01.638Z,60.40
2022-08-17T17:59:06.560Z,61.10
2022-08-17T18:02:38.650Z,62.00
2022-08-17T18:05:39.449Z,63.00
2022-08-17T18:08:46.815Z,63.20
2022-08-17T18:12:19.805Z,63.10
2022-08-17T18:15:15.288Z,63.10
2022-08-17T18:18:17.220Z,63.30
2022-08-17T18:21:19.423Z,63.30
2022-08-17T18:24:13.697Z,63.30
2022-08-17T18:27:24.876Z,63.20
2022-08-17T18:30:17.020Z,63.60
2022-08-17T18:33:23.288Z,63.30
2022-08-17T18:36:32.533Z,63.70
2022-08-17T18:39:28.850Z,63.60
2022-08-17T18:42:29.210Z,63.50
2022-08-17T18:45:44.689Z,63.70
2022-08-17T18:48:59.255Z,65.70
2022-08-17T18:52:13.065Z,70.40
2022-08-17T18:55:23.204Z,71.70
2022-08-17T18:58:24.215Z,72.60
2022-08-17T19:01:21.459Z,72.00
2022-08-17T19:04:37.200Z,73.10
2022-08-17T19:07:38.132Z,73.70
2022-08-17T19:10:46.161Z,73.40
2022-08-17T19:13:39.351Z,72.70
2022-08-17T19:16:52.391Z,72.00
2022-08-17T19:20:01.774Z,72.70
2022-08-17T19:23:02.408Z,73.30
2022-08-17T19:25:58.475Z,72.60
2022-08-17T19:28:58.527Z,72.40
2022-08-17T19:31:51.110Z,73.10
2022-08-17T19:34:44.699Z,71.00
2022-08-17T19:38:12.809Z,71.40
2022-08-17T19:41:24.900Z,71.90
2022-08-17T19:44:32.214Z,73.50
2022-08-17T19:48:07.993Z,75.30
2022-08-17T19:51:09.246Z,74.10
2022-08-17T19:54:16.085Z,74.30
2022-08-17T19:57:30.284Z,74.20
2022-08-17T20:00:22.693Z,74.90
2022-08-17T20:03:38.045Z,75.40
2022-08-17T20:06:34.463Z,76.60
2022-08-17T20:09:40.849Z,77.50
2022-08-17T20:12:38.642Z,80.10
2022-08-17T20:15:35.462Z,81.40
2022-08-17T20:18:47.693Z,83.30
2022-08-17T20:21:58.018Z,83.60
2022-08-17T20:24:58.772Z,84.10
2022-08-17T20:28:02.886Z,82.90
2022-08-17T20:30:58.912Z,82.70
2022-08-17T20:33:51.118Z,82.70
2022-08-17T20:36:59.482Z,84.10
2022-08-17T20:39:52.636Z,84.40
2022-08-17T20:42:44.923Z,84.00
2022-08-17T20:45:57.789Z,83.70
2022-08-17T20:48:55.478Z,84.00
2022-08-17T20:52:00.696Z,84.60
2022-08-17T20:54:57.350Z,84.50
2022-08-17T20:57:50.016Z,84.20
2022-08-17T21:00:56.298Z,84.00
2022-08-17T21:03:51.862Z,85.80
2022-08-17T21:07:21.821Z,84.60
2022-08-17T21:10:26.396Z,85.20
2022-08-17T21:13:22.070Z,86.00
2022-08-17T21:16:26.654Z,85.50
2022-08-17T21:19:48.985Z,86.20
2022-08-17T21:23:06.019Z,86.70
2022-08-17T21:26:10.257Z,88.50
2022-08-17T21:29:31.105Z,89.60
2022-08-17T21:32:30.401Z,90.00
2022-08-17T21:35:29.158Z,89.50
2022-08-17T21:38:32.979Z,89.10
2022-08-17T21:41:45.346Z,89.90
2022-08-17T21:44:43.216Z,89.70
2022-08-17T21:47:35.510Z,88.60
2022-08-17T21:50:27.765Z,88.90
2022-08-17T21:53:39.796Z,88.40
2022-08-17T21:56:36.269Z,89.10
2022-08-17T21:59:34.691Z,90.00
2022-08-17T22:02:36.148Z,90.80
2022-08-17T22:05:39.903Z,91.20
2022-08-17T22:08:32.136Z,91.20
2022-08-17T22:11:24.451Z,91.50
2022-08-17T22:14:22.148Z,91.50
2022-08-17T22:17:28.189Z,91.80
2022-08-17T22:20:21.641Z,92.00
2022-08-17T22:23:33.179Z,91.60
2022-08-17T22:26:47.131Z,91.90
2022-08-17T22:29:53.355Z,91.60
2022-08-17T22:32:49.957Z,92.20
2022-08-17T22:35:43.640Z,93.50
2022-08-17T22:38:36.497Z,94.10
2022-08-17T22:41:34.506Z,93.70
2022-08-17T22:44:37.610Z,94.80
2022-08-17T22:47:40.605Z,94.60
2022-08-17T22:50:35.600Z,94.30
2022-08-17T22:53:46.908Z,95.20
2022-08-17T22:57:07.068Z,95.20
2022-08-17T23:00:00.073Z,96.10
2022-08-17T23:03:16.694Z,96.50
2022-08-17T23:06:10.766Z,96.90
2022-08-17T23:09:05.856Z,96.60
2022-08-17T23:11:58.815Z,96.90
2022-08-17T23:14:58.427Z,98.70
2022-08-17T23:17:50.805Z,99.90
2022-08-17T23:20:43.825Z,99.90
2022-08-17T23:23:37.093Z,99.90
2022-08-17T23:26:30.017Z,99.90
2022-08-17T23:29:24.115Z,99.90
2022-08-17T23:32:18.562Z,99.90
2022-08-17T23:35:11.309Z,99.90
2022-08-17T23:38:03.599Z,99.90
2022-08-17T23:40:59.947Z,99.90
2022-08-17T23:43:52.810Z,99.90
2022-08-17T23:46:45.062Z,99.90
2022-08-17T23:49:40.319Z,99.90
2022-08-17T23:52:36.973Z,99.90
2022-08-17T23:55:34.487Z,99.90
2022-08-17T23:58:26.763Z,99.90
